Time;durP1;ratioP1;P1;durP2;ratioP2;P2;SDS_P1;SDS_P2;PMS_P1;PMS_P2;Temp;Humidity;BMP_temperature;BMP_pressure;BME280_temperature;BME280_humidity;BME280_pressure;Samples;Min_cycle;Max_cycle;Signal;HPM_P1;HPM_P2
2022/07/01 00:00:36;;;;;;;30.40;11.48;;;24.70;99.90;;;;;;6117260;23;20010;-93
2022/07/01 00:43:46;;;;;;;;;;;;;;;;;;;;;
2022/07/01 00:49:35;;;;;;;32.35;11.15;;;23.90;99.90;;;;;;6350428;22;20089;-92
2022/07/01 00:52:38;;;;;;;45.45;11.25;;;23.90;99.90;;;;;;6347927;22;20002;-92
2022/07/01 01:03:49;;;;;;;43.92;11.65;;;23.90;99.90;;;;;;6063953;23;20046;-93
2022/07/01 01:09:49;;;;;;;27.00;10.18;;;23.80;99.90;;;;;;6341813;22;20041;-92
2022/07/01 01:12:39;;;;;;;;;;;;;;;;;;;;;
2022/07/01 01:35:13;;;;;;;39.72;11.82;;;24.10;99.90;;;;;;5947693;24;20013;-93
2022/07/01 01:37:52;;;;;;;44.90;11.30;;;24.00;99.90;;;;;;5926936;24;20080;-93
2022/07/01 01:40:39;;;;;;;36.00;11.35;;;23.80;99.90;;;;;;5947934;24;20016;-93
2022/07/01 01:43:22;;;;;;;44.28;12.90;;;23.70;99.90;;;;;;5927198;24;20009;-92
2022/07/01 01:47:11;;;;;;;37.65;13.85;;;23.50;99.90;;;;;;5931234;24;20040;-92
2022/07/01 01:56:11;;;;;;;35.80;13.23;;;23.50;99.90;;;;;;6332053;22;20022;-92
2022/07/01 01:59:34;;;;;;;36.67;12.55;;;23.50;99.90;;;;;;6155604;23;20009;-93
2022/07/01 02:10:22;;;;;;;46.67;13.45;;;23.30;99.90;;;;;;6394986;22;20060;-93
2022/07/01 02:16:42;;;;;;;35.10;12.93;;;23.20;99.90;;;;;;6283105;22;20023;-93
2022/07/01 02:20:12;;;;;;;41.40;13.23;;;23.10;99.90;;;;;;6277371;22;20007;-93
2022/07/01 02:42:35;;;;;;;36.58;14.05;;;23.00;99.90;;;;;;6302096;22;20063;-92
2022/07/01 02:46:04;;;;;;;35.53;14.50;;;23.00;99.90;;;;;;6289341;22;20010;-92
2022/07/01 03:00:52;;;;;;;35.47;13.77;;;23.00;99.90;;;;;;6355129;22;20091;-92
2022/07/01 03:04:16;;;;;;;32.63;13.30;;;23.00;99.90;;;;;;6335364;22;20030;-93
2022/07/01 03:11:37;;;;;;;;;;;;;;;;;;;;;
2022/07/01 03:14:53;;;;;;;24.40;10.65;;;23.10;99.90;;;;;;6349056;22;20015;-92
2022/07/01 03:18:02;;;;;;;30.63;12.02;;;23.00;99.90;;;;;;6174611;23;20041;-92
2022/07/01 03:21:03;;;;;;;45.97;11.25;;;23.00;99.90;;;;;;6172624;23;20016;-93
2022/07/01 03:24:13;;;;;;;75.75;12.60;;;22.90;99.90;;;;;;6133099;23;20009;-92
2022/07/01 03:26:59;;;;;;;99.07;14.70;;;22.80;99.90;;;;;;6039419;23;19999;-92
2022/07/01 03:29:59;;;;;;;50.35;12.98;;;22.80;99.90;;;;;;6019807;23;19999;-92
2022/07/01 03:32:35;;;;;;;147.15;20.25;;;22.80;99.90;;;;;;6010202;23;20007;-92
2022/07/01 03:36:25;;;;;;;;;;;;;;;;;;;;;
2022/07/01 03:39:16;;;;;;;24.35;11.80;;;22.60;99.90;;;;;;6174669;23;20423;-93
2022/07/01 03:41:56;;;;;;;21.77;12.48;;;22.60;99.90;;;;;;6179691;23;20005;-92
2022/07/01 03:44:36;;;;;;;21.90;11.32;;;22.80;99.90;;;;;;6240589;22;20029;-93
2022/07/01 03:47:14;;;;;;;26.85;10.75;;;22.90;99.90;;;;;;6365664;22;20055;-94
2022/07/01 03:49:55;;;;;;;26.38;12.23;;;23.00;99.90;;;;;;6343309;22;20050;-92
2022/07/01 03:52:25;;;;;;;64.07;17.77;;;22.90;99.90;;;;;;6336872;22;20013;-91
2022/07/01 03:55:03;;;;;;;19.73;14.25;;;23.00;99.90;;;;;;6307557;22;19995;-92
2022/07/01 03:57:36;;;;;;;25.88;11.70;;;23.10;99.90;;;;;;6329296;22;20434;-92
2022/07/01 04:00:18;;;;;;;19.67;10.43;;;23.20;99.90;;;;;;6331068;22;20023;-92
2022/07/01 04:02:53;;;;;;;19.80;10.55;;;23.20;99.90;;;;;;6337224;22;20064;-93
2022/07/01 04:05:21;;;;;;;22.40;10.95;;;23.20;99.90;;;;;;6334792;22;20015;-93
2022/07/01 04:08:15;;;;;;;26.55;11.07;;;23.30;99.90;;;;;;6312717;22;20015;-94
2022/07/01 04:10:54;;;;;;;24.90;10.27;;;23.40;99.90;;;;;;6254850;22;20003;-93
2022/07/01 04:13:24;;;;;;;12.32;7.55;;;23.60;99.90;;;;;;6260336;22;20030;-92
2022/07/01 04:15:59;;;;;;;19.05;8.88;;;23.60;99.90;;;;;;6259250;22;20002;-93
2022/07/01 04:18:44;;;;;;;20.27;9.55;;;23.70;99.90;;;;;;6284111;22;20013;-93
2022/07/01 04:27:03;;;;;;;18.70;8.05;;;23.80;99.90;;;;;;6346072;22;20103;-93
2022/07/01 04:29:36;;;;;;;14.93;8.05;;;23.90;99.90;;;;;;6366690;22;20006;-93
2022/07/01 04:32:10;;;;;;;22.97;8.87;;;24.00;99.90;;;;;;6393683;22;20015;-93
2022/07/01 04:34:46;;;;;;;20.23;7.72;;;24.20;99.90;;;;;;6378073;22;20030;-94
2022/07/01 04:37:16;;;;;;;14.63;7.40;;;24.30;99.90;;;;;;6339007;22;20023;-93
2022/07/01 04:39:54;;;;;;;13.80;5.80;;;24.70;99.90;;;;;;6305421;22;20014;-93
2022/07/01 04:42:45;;;;;;;22.00;6.40;;;25.30;99.90;;;;;;6272913;22;20007;-94
2022/07/01 04:48:41;;;;;;;15.02;5.68;;;28.00;99.90;;;;;;6299501;22;20011;-93
2022/07/01 04:51:37;;;;;;;15.77;5.85;;;29.60;99.90;;;;;;6241900;23;20091;-93
2022/07/01 04:54:39;;;;;;;21.02;5.47;;;30.60;99.90;;;;;;6230321;22;19996;-93
2022/07/01 04:57:35;;;;;;;24.15;6.10;;;31.60;99.90;;;;;;6315080;22;20010;-94
2022/07/01 05:00:07;;;;;;;15.85;5.57;;;32.20;99.90;;;;;;6234261;23;20008;-93
2022/07/01 05:02:48;;;;;;;15.00;5.82;;;32.80;99.90;;;;;;6158736;23;20018;-94
2022/07/01 05:05:25;;;;;;;18.00;6.10;;;33.00;99.90;;;;;;6179889;23;20060;-95
2022/07/01 05:08:28;;;;;;;22.95;6.55;;;33.20;99.90;;;;;;6181041;23;20013;-94
2022/07/01 05:10:57;;;;;;;19.17;6.90;;;33.50;99.90;;;;;;6326677;22;20002;-94
2022/07/01 05:13:27;;;;;;;18.55;7.47;;;33.50;99.90;;;;;;6398926;22;19990;-94
2022/07/01 05:16:18;;;;;;;23.75;8.15;;;34.00;99.90;;;;;;6322481;22;19999;-94
2022/07/01 05:22:20;;;;;;;18.58;7.53;;;35.20;99.90;;;;;;6373561;22;20055;-95
2022/07/01 05:24:55;;;;;;;24.55;9.32;;;35.30;99.90;;;;;;6292576;22;19998;-94
2022/07/01 05:27:58;;;;;;;22.77;8.98;;;35.20;99.90;;;;;;6359720;22;20017;-95
2022/07/01 05:30:33;;;;;;;25.90;8.50;;;35.70;99.90;;;;;;6341809;22;20041;-93
2022/07/01 05:33:07;;;;;;;24.73;9.20;;;35.50;99.90;;;;;;6334557;22;20015;-94
2022/07/01 05:35:38;;;;;;;26.45;9.63;;;35.70;99.90;;;;;;6360905;22;20022;-94
2022/07/01 05:38:28;;;;;;;24.75;9.38;;;35.70;99.90;;;;;;6331213;22;20014;-94
2022/07/01 05:41:00;;;;;;;31.25;8.82;;;36.20;99.90;;;;;;6337955;22;20014;-95
2022/07/01 05:43:32;;;;;;;24.60;8.50;;;35.70;99.90;;;;;;6362556;22;20028;-94
2022/07/01 05:46:36;;;;;;;27.30;8.75;;;35.90;99.90;;;;;;6356682;22;20241;-94
2022/07/01 05:49:03;;;;;;;30.65;7.47;;;36.30;99.90;;;;;;6368973;22;20056;-93
2022/07/01 05:51:31;;;;;;;30.42;9.73;;;36.40;99.90;;;;;;6343302;22;20002;-94
2022/07/01 05:53:58;;;;;;;26.58;8.90;;;35.80;99.90;;;;;;6347452;22;20006;-93
2022/07/01 05:56:26;;;;;;;32.08;11.10;;;35.80;99.90;;;;;;6351843;22;20010;-93
2022/07/01 05:58:54;;;;;;;30.80;11.00;;;36.30;99.90;;;;;;6355761;22;20028;-93
2022/07/01 06:01:25;;;;;;;34.33;10.95;;;36.90;99.90;;;;;;6359545;22;20007;-94
2022/07/01 06:03:52;;;;;;;33.55;11.48;;;36.80;99.90;;;;;;6363080;22;20009;-93
2022/07/01 06:06:19;;;;;;;27.80;10.50;;;36.90;99.90;;;;;;6333700;22;19999;-93
2022/07/01 06:08:46;;;;;;;28.77;10.57;;;37.40;99.90;;;;;;6329353;22;20007;-94
2022/07/01 06:11:13;;;;;;;34.10;10.85;;;37.60;99.90;;;;;;6344045;22;19999;-94
2022/07/01 06:13:41;;;;;;;26.10;11.23;;;37.20;99.90;;;;;;6342047;22;20018;-93
2022/07/01 06:16:08;;;;;;;34.80;11.98;;;37.10;99.90;;;;;;6340683;22;20014;-92
2022/07/01 06:18:36;;;;;;;28.20;11.38;;;37.30;99.90;;;;;;6341436;22;20017;-92
2022/07/01 06:21:06;;;;;;;30.70;12.40;;;37.80;99.90;;;;;;6320635;22;20002;-95
2022/07/01 06:23:37;;;;;;;33.95;12.73;;;38.00;99.90;;;;;;6359056;22;20003;-94
2022/07/01 06:26:19;;;;;;;33.97;12.20;;;38.40;99.90;;;;;;6330127;22;20002;-94
2022/07/01 06:28:49;;;;;;;31.77;12.55;;;37.90;99.90;;;;;;6311708;22;19994;-95
2022/07/01 06:31:19;;;;;;;31.85;13.40;;;37.00;99.90;;;;;;6330496;22;20033;-95
2022/07/01 06:33:48;;;;;;;32.47;13.75;;;36.50;99.90;;;;;;6304552;22;20157;-95
2022/07/01 06:36:20;;;;;;;32.40;13.43;;;37.20;99.90;;;;;;6268211;22;20015;-92
2022/07/01 06:38:55;;;;;;;35.85;13.63;;;36.80;99.90;;;;;;6264403;22;20007;-94
2022/07/01 06:41:29;;;;;;;28.15;13.65;;;37.50;99.90;;;;;;6271032;22;20433;-95
2022/07/01 06:44:04;;;;;;;29.47;13.23;;;37.30;99.90;;;;;;6285308;22;20011;-94
2022/07/01 06:46:32;;;;;;;23.88;12.18;;;37.60;99.90;;;;;;6261824;22;20004;-94
2022/07/01 06:49:03;;;;;;;24.70;12.50;;;37.40;99.90;;;;;;6326047;22;20007;-95
2022/07/01 06:51:45;;;;;;;;;;;37.50;99.90;;;;;;6277867;22;20003;-95
2022/07/01 06:54:18;;;;;;;26.80;12.35;;;37.90;99.90;;;;;;6272872;22;19981;-95
2022/07/01 06:56:48;;;;;;;26.60;12.95;;;38.00;99.90;;;;;;6264964;22;20018;-93
2022/07/01 06:59:22;;;;;;;26.73;12.75;;;37.20;99.90;;;;;;6264016;22;20011;-94
2022/07/01 07:01:49;;;;;;;25.65;13.45;;;37.10;99.90;;;;;;6289257;22;20014;-95
2022/07/01 07:04:16;;;;;;;23.75;12.38;;;37.70;99.90;;;;;;6301260;22;20002;-94
2022/07/01 07:06:50;;;;;;;22.08;12.52;;;37.60;99.90;;;;;;6322014;22;20101;-95
2022/07/01 07:09:16;;;;;;;;;;;37.90;99.90;;;;;;6262085;22;20004;-93
2022/07/01 07:11:43;;;;;;;26.92;12.73;;;38.80;99.90;;;;;;6243913;22;19910;-94
2022/07/01 07:14:13;;;;;;;24.95;12.60;;;39.30;99.90;;;;;;6272811;22;20039;-94
2022/07/01 07:16:41;;;;;;;23.35;13.00;;;38.80;99.90;;;;;;6290692;22;20023;-94
2022/07/01 07:19:12;;;;;;;20.98;12.70;;;39.10;99.90;;;;;;6264981;22;20063;-94
2022/07/01 07:21:39;;;;;;;20.70;12.18;;;38.30;99.90;;;;;;6240568;22;20017;-94
2022/07/01 07:26:49;;;;;;;20.13;12.10;;;39.10;99.90;;;;;;6362271;22;20017;-93
2022/07/01 07:29:16;;;;;;;25.58;12.02;;;39.10;99.90;;;;;;6352472;22;20428;-94
2022/07/01 07:31:43;;;;;;;23.10;12.20;;;39.50;99.90;;;;;;6346171;22;20010;-95
2022/07/01 07:34:09;;;;;;;23.30;12.13;;;39.70;99.90;;;;;;6373568;22;20081;-92
2022/07/01 07:36:36;;;;;;;17.63;11.57;;;39.50;99.90;;;;;;6346536;22;20011;-92
2022/07/01 07:39:04;;;;;;;24.23;11.57;;;39.00;99.90;;;;;;6346292;22;20017;-94
2022/07/01 07:41:39;;;;;;;18.30;11.30;;;39.60;99.90;;;;;;6349035;22;20009;-94
2022/07/01 07:44:23;;;;;;;28.10;13.13;;;39.80;99.90;;;;;;6361861;22;20010;-92
2022/07/01 07:47:08;;;;;;;22.58;11.35;;;40.40;99.90;;;;;;6304382;22;20019;-95
2022/07/01 07:52:56;;;;;;;23.85;12.43;;;39.50;99.90;;;;;;6367410;22;20094;-93
2022/07/01 07:59:07;;;;;;;18.23;11.90;;;40.00;99.90;;;;;;6351205;22;20491;-93
2022/07/01 08:31:52;;;;;;;19.88;11.18;;;38.70;99.90;;;;;;6271074;23;20031;-95
2022/07/01 08:42:42;;;;;;;16.10;11.52;;;40.20;99.90;;;;;;6334002;22;20040;-93
2022/07/01 08:59:09;;;;;;;15.95;10.98;;;40.50;99.90;;;;;;6328108;22;20030;-93
2022/07/01 09:04:33;;;;;;;13.70;11.07;;;40.70;99.90;;;;;;6381035;22;20516;-94
2022/07/01 09:10:14;;;;;;;21.08;12.10;;;40.70;99.90;;;;;;6335826;22;20006;-94
2022/07/01 09:18:23;;;;;;;20.40;11.93;;;40.00;98.30;;;;;;6304204;22;20053;-93
2022/07/01 09:20:55;;;;;;;17.55;11.93;;;39.60;97.90;;;;;;6214686;23;20027;-94
2022/07/01 09:23:21;;;;;;;21.23;12.30;;;39.10;98.30;;;;;;6235843;23;20044;-94
2022/07/01 09:25:51;;;;;;;16.85;11.50;;;38.40;98.90;;;;;;6234609;23;20062;-94
2022/07/01 09:28:20;;;;;;;16.38;11.68;;;38.00;99.40;;;;;;6234829;23;20015;-94
2022/07/01 09:30:49;;;;;;;14.30;11.75;;;38.00;99.60;;;;;;6218359;23;20004;-91
2022/07/01 09:33:26;;;;;;;15.93;11.75;;;38.40;99.40;;;;;;6208379;23;20458;-95
2022/07/01 09:35:59;;;;;;;20.75;11.93;;;39.00;98.80;;;;;;6200005;23;20020;-93
2022/07/01 09:38:26;;;;;;;13.40;11.95;;;38.60;98.20;;;;;;6195787;23;20008;-92
2022/07/01 09:41:11;;;;;;;13.18;11.65;;;38.00;97.70;;;;;;6196521;23;20434;-95
2022/07/01 09:43:41;;;;;;;12.55;11.25;;;37.90;97.30;;;;;;6196677;23;20011;-94
2022/07/01 09:46:10;;;;;;;13.52;11.18;;;37.30;97.70;;;;;;6197152;23;20027;-94
2022/07/01 09:48:36;;;;;;;16.90;11.20;;;37.70;97.60;;;;;;6200389;23;20507;-93
2022/07/01 09:51:06;;;;;;;18.95;12.35;;;38.40;97.70;;;;;;6198661;23;19996;-94
2022/07/01 09:53:38;;;;;;;19.25;11.90;;;39.00;97.50;;;;;;6225847;23;20008;-96
2022/07/01 09:56:10;;;;;;;27.67;12.20;;;39.30;99.90;;;;;;6237439;22;20046;-94
2022/07/01 09:58:38;;;;;;;25.33;11.43;;;39.10;99.90;;;;;;6306315;22;20019;-95
2022/07/01 10:01:08;;;;;;;27.30;11.68;;;38.70;99.90;;;;;;6308315;22;20029;-95
2022/07/01 10:03:41;;;;;;;22.95;10.65;;;38.60;99.90;;;;;;6298888;22;20429;-95
2022/07/01 10:06:41;;;;;;;28.73;11.35;;;38.40;99.90;;;;;;6331072;22;19987;-94
2022/07/01 10:14:40;;;;;;;23.50;11.40;;;38.10;99.90;;;;;;6292425;22;20086;-93
2022/07/01 10:20:15;;;;;;;23.67;10.10;;;37.40;99.90;;;;;;6328336;22;20058;-95
2022/07/01 10:23:02;;;;;;;27.50;10.73;;;37.00;99.90;;;;;;6277380;22;19991;-94
2022/07/01 10:25:35;;;;;;;27.42;10.43;;;37.20;99.90;;;;;;6278070;22;20003;-94
2022/07/01 10:28:34;;;;;;;19.95;10.00;;;37.20;99.90;;;;;;6232864;22;19983;-94
2022/07/01 10:34:07;;;;;;;19.55;10.57;;;35.70;99.90;;;;;;6366112;22;20059;-94
2022/07/01 10:36:37;;;;;;;27.90;11.13;;;35.70;99.90;;;;;;6308161;22;20017;-93
2022/07/01 10:39:13;;;;;;;24.15;11.00;;;36.20;99.90;;;;;;6352697;22;20026;-93
2022/07/01 10:42:07;;;;;;;27.77;11.77;;;36.00;99.90;;;;;;6334548;22;20048;-94
2022/07/01 10:45:01;;;;;;;25.20;10.60;;;36.60;99.90;;;;;;6321265;22;20009;-94
2022/07/01 10:48:10;;;;;;;14.70;9.80;;;36.60;99.90;;;;;;6356610;22;20002;-93
2022/07/01 13:10:44;;;;;;;15.98;9.73;;;35.10;99.90;;;;;;6368875;22;20048;-93
2022/07/01 13:13:20;;;;;;;21.35;10.00;;;35.30;99.90;;;;;;6347108;22;20015;-94
2022/07/01 13:15:49;;;;;;;21.02;10.30;;;35.50;99.90;;;;;;6323765;22;20010;-94
2022/07/01 13:18:19;;;;;;;19.55;9.63;;;35.40;99.90;;;;;;6324196;22;20013;-94
2022/07/01 13:20:46;;;;;;;20.90;9.10;;;35.40;99.90;;;;;;6332348;22;20330;-94
2022/07/01 13:23:13;;;;;;;24.20;9.13;;;35.30;99.90;;;;;;6326002;22;20317;-94
2022/07/01 13:25:41;;;;;;;23.38;8.77;;;35.50;99.90;;;;;;6323475;22;20006;-94
2022/07/01 13:28:08;;;;;;;21.23;8.32;;;35.50;99.90;;;;;;6321653;22;20010;-94
2022/07/01 13:30:36;;;;;;;14.95;8.75;;;35.40;99.90;;;;;;6323018;22;20006;-94
2022/07/01 13:33:07;;;;;;;25.77;10.57;;;35.40;99.90;;;;;;6323306;22;20010;-94
2022/07/01 13:35:33;;;;;;;19.15;9.50;;;35.40;99.90;;;;;;6322755;22;20444;-94
2022/07/01 13:38:00;;;;;;;21.85;9.35;;;35.50;99.90;;;;;;6324248;22;20005;-95
2022/07/01 13:40:30;;;;;;;19.15;9.82;;;35.40;99.90;;;;;;6324165;22;20006;-94
2022/07/01 13:42:56;;;;;;;19.75;10.13;;;35.60;99.90;;;;;;6325309;22;20008;-94
2022/07/01 13:45:24;;;;;;;23.13;10.70;;;35.80;99.90;;;;;;6322242;22;20011;-95
2022/07/01 13:47:50;;;;;;;17.15;9.32;;;35.90;99.90;;;;;;6323725;22;20002;-95
2022/07/01 13:50:19;;;;;;;21.15;9.68;;;36.00;99.90;;;;;;6323831;22;20006;-94
2022/07/01 13:52:47;;;;;;;14.20;9.73;;;35.70;99.90;;;;;;6321708;22;20005;-95
2022/07/01 13:55:14;;;;;;;26.67;11.57;;;35.50;99.90;;;;;;6321774;22;20017;-94
2022/07/01 13:57:41;;;;;;;17.70;11.18;;;35.50;99.90;;;;;;6322327;22;20012;-94
2022/07/01 14:00:11;;;;;;;18.77;10.30;;;35.30;99.90;;;;;;6321812;22;20007;-95
2022/07/01 14:02:37;;;;;;;16.52;10.13;;;35.00;99.90;;;;;;6331318;22;20006;-95
2022/07/01 14:05:04;;;;;;;14.55;9.93;;;34.90;99.90;;;;;;6329583;22;19998;-93
2022/07/01 14:07:31;;;;;;;24.08;10.35;;;35.00;99.90;;;;;;6323177;22;20006;-93
2022/07/01 14:10:10;;;;;;;16.48;9.73;;;35.30;99.90;;;;;;6323384;22;19999;-94
2022/07/01 14:12:37;;;;;;;22.17;10.27;;;35.50;99.90;;;;;;6326270;22;20021;-95
2022/07/01 14:15:04;;;;;;;31.15;10.43;;;35.50;99.90;;;;;;6323278;22;20014;-95
2022/07/01 14:17:32;;;;;;;19.10;9.57;;;35.70;99.90;;;;;;6326037;22;20003;-95
2022/07/01 14:20:01;;;;;;;22.40;10.43;;;35.80;99.90;;;;;;6334001;22;20002;-93
2022/07/01 14:22:32;;;;;;;20.33;10.63;;;35.50;99.90;;;;;;6327566;22;20003;-94
2022/07/01 14:24:59;;;;;;;19.15;10.48;;;35.30;99.90;;;;;;6327058;22;20026;-94
2022/07/01 14:27:38;;;;;;;17.40;9.35;;;35.30;99.90;;;;;;6353217;22;20035;-95
2022/07/01 14:30:17;;;;;;;24.90;9.80;;;35.40;99.90;;;;;;6327008;22;20026;-94
2022/07/01 14:32:44;;;;;;;23.35;9.95;;;35.30;99.90;;;;;;6327024;22;20013;-94
2022/07/01 14:35:53;;;;;;;22.02;10.25;;;35.20;99.90;;;;;;6333025;22;20014;-95
2022/07/01 14:38:37;;;;;;;26.67;9.73;;;35.30;99.90;;;;;;6294688;22;20022;-94
2022/07/01 14:48:10;;;;;;;19.75;10.20;;;34.80;99.90;;;;;;6355340;22;20042;-94
2022/07/01 14:51:12;;;;;;;23.02;11.30;;;34.70;99.90;;;;;;6180291;23;20007;-94
2022/07/01 14:54:22;;;;;;;22.33;10.52;;;34.70;99.90;;;;;;6209158;23;20009;-95
2022/07/01 14:57:49;;;;;;;17.20;10.60;;;34.80;99.90;;;;;;6208559;23;20020;-95
2022/07/01 15:00:36;;;;;;;19.05;10.60;;;34.90;99.90;;;;;;6228578;23;20014;-94
2022/07/01 15:03:59;;;;;;;22.20;11.05;;;34.70;99.90;;;;;;6205337;23;20009;-94
2022/07/01 15:11:29;;;;;;;17.23;11.00;;;34.70;99.90;;;;;;5997084;23;20012;-94
2022/07/01 15:14:20;;;;;;;20.33;11.20;;;34.50;99.90;;;;;;5878493;24;20015;-94
2022/07/01 15:17:20;;;;;;;;;;;;;;;;;;;;;
2022/07/01 15:19:57;;;;;;;19.30;11.40;;;34.50;99.90;;;;;;5840447;24;20011;-95
2022/07/01 15:22:34;;;;;;;16.27;11.57;;;34.80;99.90;;;;;;5820865;24;20017;-94
2022/07/01 15:25:08;;;;;;;18.92;11.52;;;34.70;99.90;;;;;;5862777;24;20018;-94
2022/07/01 15:27:43;;;;;;;16.08;9.55;;;34.60;99.90;;;;;;5881117;24;20010;-93
2022/07/01 15:30:19;;;;;;;23.33;10.30;;;34.30;99.90;;;;;;5894676;24;20013;-94
2022/07/01 15:32:55;;;;;;;19.48;9.82;;;34.40;99.90;;;;;;5890018;24;20009;-95
2022/07/01 15:35:26;;;;;;;15.73;10.07;;;34.50;99.90;;;;;;5870192;24;20035;-94
2022/07/01 15:38:01;;;;;;;19.80;10.88;;;34.40;99.90;;;;;;5919023;24;20021;-94
2022/07/01 15:40:34;;;;;;;26.40;10.50;;;34.40;99.90;;;;;;5849979;24;20059;-94
2022/07/01 15:43:31;;;;;;;18.38;10.73;;;34.30;99.90;;;;;;5952738;23;20007;-94
2022/07/01 15:46:11;;;;;;;20.23;9.73;;;34.30;99.90;;;;;;6013971;23;20635;-94
2022/07/01 15:48:50;;;;;;;17.77;10.57;;;34.30;99.90;;;;;;6232753;23;20016;-95
2022/07/01 15:54:18;;;;;;;18.13;11.43;;;34.30;99.90;;;;;;6400244;22;20021;-95
2022/07/01 15:56:55;;;;;;;15.70;9.60;;;34.00;99.90;;;;;;6325072;22;20060;-94
2022/07/01 15:59:58;;;;;;;14.10;9.95;;;33.90;99.90;;;;;;6322058;22;20007;-95
2022/07/01 16:02:36;;;;;;;17.70;12.70;;;33.90;99.90;;;;;;6323555;22;20046;-94
2022/07/01 16:09:02;;;;;;;;;;;;;;;;;;;;;
2022/07/01 16:11:41;;;;;;;15.48;10.20;;;33.90;99.90;;;;;;6228702;23;20514;-94
2022/07/01 16:14:16;;;;;;;15.00;10.00;;;33.80;99.90;;;;;;6227560;23;20032;-95
2022/07/01 16:16:45;;;;;;;13.38;10.20;;;34.00;99.90;;;;;;6205972;23;20013;-94
2022/07/01 16:19:20;;;;;;;15.88;10.07;;;34.00;99.90;;;;;;6207026;23;20004;-94
2022/07/01 16:21:58;;;;;;;15.52;10.57;;;34.10;99.90;;;;;;6203308;23;20013;-94
2022/07/01 16:24:37;;;;;;;14.35;10.18;;;33.90;99.90;;;;;;6206489;23;20012;-94
2022/07/01 16:27:04;;;;;;;14.80;10.40;;;33.90;99.90;;;;;;6215067;23;20012;-93
2022/07/01 16:29:41;;;;;;;13.93;10.13;;;33.80;99.90;;;;;;6267679;23;19996;-95
2022/07/01 16:32:12;;;;;;;19.80;10.60;;;33.80;99.90;;;;;;6237474;23;20020;-94
2022/07/01 16:34:42;;;;;;;11.43;10.25;;;33.90;99.90;;;;;;6207925;23;20008;-94
2022/07/01 16:37:16;;;;;;;11.63;10.30;;;33.70;99.90;;;;;;6232431;23;20434;-95
2022/07/01 16:39:55;;;;;;;12.70;10.57;;;33.80;99.90;;;;;;6262494;23;20001;-94
2022/07/01 16:42:32;;;;;;;22.25;9.80;;;33.70;99.90;;;;;;6215513;23;20008;-95
2022/07/01 16:45:00;;;;;;;15.13;9.13;;;33.70;99.90;;;;;;6300921;22;20002;-95
2022/07/01 16:47:42;;;;;;;16.38;9.68;;;33.70;99.90;;;;;;6370764;22;20423;-94
2022/07/01 16:50:23;;;;;;;20.55;9.93;;;33.70;99.90;;;;;;6372681;22;20127;-94
2022/07/01 16:52:56;;;;;;;18.23;10.02;;;33.70;99.90;;;;;;6365506;22;20089;-96
2022/07/01 16:55:50;;;;;;;12.02;9.35;;;33.70;99.90;;;;;;6365005;22;20013;-94
2022/07/01 16:58:24;;;;;;;20.60;11.27;;;33.90;99.90;;;;;;6368471;22;20061;-94
2022/07/01 17:00:51;;;;;;;18.35;10.82;;;34.00;99.90;;;;;;6336447;22;20013;-95
2022/07/01 17:03:22;;;;;;;17.67;11.15;;;34.10;99.90;;;;;;6332166;22;19999;-94
2022/07/01 17:05:51;;;;;;;22.20;12.13;;;34.00;99.90;;;;;;6335222;22;20026;-93
2022/07/01 17:08:21;;;;;;;31.00;12.10;;;34.00;99.90;;;;;;6298589;22;20011;-93
2022/07/01 17:10:58;;;;;;;23.17;11.52;;;33.90;99.90;;;;;;6271870;22;20003;-94
2022/07/01 17:13:34;;;;;;;22.67;11.18;;;33.80;99.90;;;;;;6273399;22;20007;-94
2022/07/01 17:16:17;;;;;;;22.58;10.95;;;33.80;99.90;;;;;;6303506;22;20026;-94
2022/07/01 17:18:48;;;;;;;21.27;11.23;;;33.70;99.90;;;;;;6267377;22;20008;-94
2022/07/01 17:21:17;;;;;;;23.95;11.10;;;33.60;99.90;;;;;;6274441;22;20004;-95
2022/07/01 17:23:53;;;;;;;19.10;10.63;;;33.50;99.90;;;;;;6276645;22;20467;-94
2022/07/01 17:26:23;;;;;;;17.50;10.50;;;33.40;99.90;;;;;;6272742;22;20455;-94
2022/07/01 17:29:03;;;;;;;14.13;9.90;;;33.30;99.90;;;;;;6265668;23;20055;-94
2022/07/01 17:31:49;;;;;;;19.92;11.65;;;33.20;99.90;;;;;;6240865;23;20012;-95
2022/07/01 17:34:51;;;;;;;20.17;10.65;;;33.10;99.90;;;;;;6244447;23;20008;-94
2022/07/01 17:37:21;;;;;;;22.17;11.32;;;33.10;99.90;;;;;;6192577;23;20044;-95
2022/07/01 17:40:00;;;;;;;21.95;10.85;;;33.00;99.90;;;;;;6213589;23;20067;-95
2022/07/01 17:42:31;;;;;;;20.20;10.30;;;32.90;99.90;;;;;;6240969;23;20007;-94
2022/07/01 17:45:27;;;;;;;15.63;10.00;;;32.80;99.90;;;;;;6236989;23;20004;-94
2022/07/01 17:47:59;;;;;;;14.80;9.63;;;32.80;99.90;;;;;;6240778;23;20024;-94
2022/07/01 17:55:50;;;;;;;24.75;10.48;;;32.60;99.90;;;;;;6364321;22;20040;-90
2022/07/01 17:58:18;;;;;;;22.42;9.65;;;32.40;99.90;;;;;;6332065;22;20077;-92
2022/07/01 18:00:45;;;;;;;14.55;9.52;;;32.40;99.90;;;;;;6356089;22;20026;-92
2022/07/01 18:03:14;;;;;;;23.17;9.70;;;32.30;99.90;;;;;;6362515;22;20024;-91
2022/07/01 18:05:42;;;;;;;13.27;9.50;;;32.20;99.90;;;;;;6357550;22;20026;-92
2022/07/01 18:08:12;;;;;;;16.70;9.80;;;32.10;99.90;;;;;;6358338;22;20332;-91
2022/07/01 18:10:47;;;;;;;15.13;9.05;;;32.00;99.90;;;;;;6358612;22;20010;-93
2022/07/01 18:13:25;;;;;;;21.35;9.30;;;31.90;99.90;;;;;;6359425;22;20057;-91
2022/07/01 18:15:59;;;;;;;18.85;9.63;;;31.90;99.90;;;;;;6358062;22;20021;-92
2022/07/01 18:18:28;;;;;;;20.02;9.27;;;31.80;99.90;;;;;;6384661;22;20439;-92
2022/07/01 18:21:03;;;;;;;15.82;10.25;;;31.70;99.90;;;;;;6363559;22;20017;-92
2022/07/01 18:23:57;;;;;;;19.58;10.52;;;31.60;99.90;;;;;;6365354;22;20009;-93
2022/07/01 18:26:27;;;;;;;19.63;10.10;;;31.50;99.90;;;;;;6357228;22;20003;-91
2022/07/01 18:29:01;;;;;;;21.05;9.95;;;31.40;99.90;;;;;;6384480;22;20009;-93
2022/07/01 18:31:34;;;;;;;25.98;9.45;;;31.30;99.90;;;;;;6365277;22;20002;-92
2022/07/01 18:34:29;;;;;;;13.75;8.95;;;31.20;99.90;;;;;;6357393;22;20006;-92
2022/07/01 18:36:58;;;;;;;;;;;31.20;99.90;;;;;;6199130;23;20069;-92
2022/07/01 18:39:26;;;;;;;25.50;11.43;;;31.10;99.90;;;;;;6142571;23;19904;-93
2022/07/01 18:41:53;;;;;;;22.70;9.65;;;31.10;99.90;;;;;;6169799;23;20008;-92
2022/07/01 18:44:25;;;;;;;28.33;12.13;;;31.00;99.90;;;;;;6180741;23;20041;-92
2022/07/01 18:46:53;;;;;;;26.05;10.52;;;30.90;99.90;;;;;;6189127;23;20042;-92
2022/07/01 18:49:21;;;;;;;23.02;10.07;;;30.90;99.90;;;;;;6184574;23;20029;-90
2022/07/01 18:51:50;;;;;;;19.13;9.40;;;30.80;99.90;;;;;;6182904;23;20039;-90
2022/07/01 18:54:21;;;;;;;24.27;9.85;;;30.80;99.90;;;;;;6181400;23;20009;-91
2022/07/01 18:56:48;;;;;;;15.50;9.93;;;30.70;99.90;;;;;;6182610;23;20021;-90
2022/07/01 18:59:16;;;;;;;27.40;10.68;;;30.60;99.90;;;;;;6163077;23;20006;-89
2022/07/01 19:01:42;;;;;;;32.20;13.13;;;30.60;99.90;;;;;;6163205;23;20013;-90
2022/07/01 19:04:09;;;;;;;24.20;11.10;;;30.60;99.90;;;;;;6160447;23;20436;-93
2022/07/01 19:06:38;;;;;;;23.77;11.25;;;30.50;99.90;;;;;;6158629;23;20016;-92
2022/07/01 19:09:05;;;;;;;24.35;10.75;;;30.50;99.90;;;;;;6133204;23;20009;-92
2022/07/01 19:11:32;;;;;;;38.53;10.93;;;30.40;99.90;;;;;;6132026;23;20009;-94
2022/07/01 19:14:01;;;;;;;25.52;13.68;;;30.40;99.90;;;;;;6237065;22;20015;-93
